sensor_id;sensor_type;location;lat;lon;timestamp;temperature;humidity
21666;DHT22;10994;45.486;9.190;2022-12-18T00:02:07;9.90;99.90
21666;DHT22;10994;45.486;9.190;2022-12-18T00:04:32;9.70;99.90
21666;DHT22;10994;45.486;9.190;2022-12-18T00:06:58;9.60;99.90
21666;DHT22;10994;45.486;9.190;2022-12-18T00:09:24;9.60;99.90
21666;DHT22;10994;45.486;9.190;2022-12-18T00:11:49;9.60;99.90
21666;DHT22;10994;45.486;9.190;2022-12-18T00:14:15;9.50;99.90
21666;DHT22;10994;45.486;9.190;2022-12-18T00:16:44;9.60;99.90
21666;DHT22;10994;45.486;9.190;2022-12-18T00:19:10;9.60;99.90
21666;DHT22;10994;45.486;9.190;2022-12-18T00:21:36;9.50;99.90
21666;DHT22;10994;45.486;9.190;2022-12-18T00:24:02;9.70;99.90
21666;DHT22;10994;45.486;9.190;2022-12-18T00:26:30;9.70;99.90
21666;DHT22;10994;45.486;9.190;2022-12-18T00:29:05;9.80;99.90
21666;DHT22;10994;45.486;9.190;2022-12-18T00:31:31;9.70;99.90
21666;DHT22;10994;45.486;9.190;2022-12-18T00:33:59;9.70;99.90
21666;DHT22;10994;45.486;9.190;2022-12-18T00:36:28;9.70;99.90
21666;DHT22;10994;45.486;9.190;2022-12-18T00:38:55;9.70;99.90
21666;DHT22;10994;45.486;9.190;2022-12-18T00:41:21;9.80;99.90
21666;DHT22;10994;45.486;9.190;2022-12-18T00:44:08;9.80;99.90
21666;DHT22;10994;45.486;9.190;2022-12-18T00:46:34;9.80;99.90
21666;DHT22;10994;45.486;9.190;2022-12-18T00:49:00;9.80;99.90
21666;DHT22;10994;45.486;9.190;2022-12-18T00:51:27;9.90;99.90
21666;DHT22;10994;45.486;9.190;2022-12-18T00:53:53;9.80;99.90
21666;DHT22;10994;45.486;9.190;2022-12-18T00:56:22;9.90;99.90
21666;DHT22;10994;45.486;9.190;2022-12-18T00:58:49;9.80;99.90
21666;DHT22;10994;45.486;9.190;2022-12-18T01:01:15;9.80;99.90
21666;DHT22;10994;45.486;9.190;2022-12-18T01:03:40;9.80;99.90
21666;DHT22;10994;45.486;9.190;2022-12-18T01:06:08;9.90;99.90
21666;DHT22;10994;45.486;9.190;2022-12-18T01:08:34;9.90;99.90
21666;DHT22;10994;45.486;9.190;2022-12-18T01:11:01;9.90;99.90
21666;DHT22;10994;45.486;9.190;2022-12-18T01:13:32;9.80;99.90
21666;DHT22;10994;45.486;9.190;2022-12-18T01:15:57;9.60;99.90
21666;DHT22;10994;45.486;9.190;2022-12-18T01:18:23;9.60;99.90
21666;DHT22;10994;45.486;9.190;2022-12-18T01:20:50;9.60;99.90
21666;DHT22;10994;45.486;9.190;2022-12-18T01:23:15;9.40;99.90
21666;DHT22;10994;45.486;9.190;2022-12-18T01:25:41;9.40;99.90
21666;DHT22;10994;45.486;9.190;2022-12-18T01:28:09;9.30;99.90
21666;DHT22;10994;45.486;9.190;2022-12-18T01:30:34;9.20;99.90
21666;DHT22;10994;45.486;9.190;2022-12-18T01:33:00;9.20;99.90
21666;DHT22;10994;45.486;9.190;2022-12-18T01:35:26;9.10;99.90
21666;DHT22;10994;45.486;9.190;2022-12-18T01:37:56;8.90;99.90
21666;DHT22;10994;45.486;9.190;2022-12-18T01:40:22;8.90;99.90
21666;DHT22;10994;45.486;9.190;2022-12-18T01:42:52;8.60;99.90
21666;DHT22;10994;45.486;9.190;2022-12-18T01:47:47;8.40;99.90
21666;DHT22;10994;45.486;9.190;2022-12-18T01:50:24;8.30;99.90
21666;DHT22;10994;45.486;9.190;2022-12-18T01:52:55;8.20;99.90
21666;DHT22;10994;45.486;9.190;2022-12-18T01:55:25;8.00;99.90
21666;DHT22;10994;45.486;9.190;2022-12-18T01:57:57;7.80;99.90
21666;DHT22;10994;45.486;9.190;2022-12-18T02:00:24;7.60;99.90
21666;DHT22;10994;45.486;9.190;2022-12-18T02:02:52;7.50;99.90
21666;DHT22;10994;45.486;9.190;2022-12-18T02:05:26;7.40;99.90
21666;DHT22;10994;45.486;9.190;2022-12-18T02:08:25;7.40;99.90
21666;DHT22;10994;45.486;9.190;2022-12-18T02:19:27;7.00;99.90
21666;DHT22;10994;45.486;9.190;2022-12-18T02:27:32;7.10;99.90
21666;DHT22;10994;45.486;9.190;2022-12-18T02:30:00;7.30;99.90
21666;DHT22;10994;45.486;9.190;2022-12-18T02:32:32;7.20;99.90
21666;DHT22;10994;45.486;9.190;2022-12-18T02:35:01;7.20;99.90
21666;DHT22;10994;45.486;9.190;2022-12-18T02:37:29;7.20;99.90
21666;DHT22;10994;45.486;9.190;2022-12-18T02:39:57;7.00;99.90
21666;DHT22;10994;45.486;9.190;2022-12-18T02:42:25;7.10;99.90
21666;DHT22;10994;45.486;9.190;2022-12-18T02:44:51;7.10;99.90
21666;DHT22;10994;45.486;9.190;2022-12-18T02:47:25;7.20;99.90
21666;DHT22;10994;45.486;9.190;2022-12-18T02:50:00;7.20;99.90
21666;DHT22;10994;45.486;9.190;2022-12-18T02:58:11;7.60;99.90
21666;DHT22;10994;45.486;9.190;2022-12-18T03:00:51;7.60;99.90
21666;DHT22;10994;45.486;9.190;2022-12-18T03:03:27;7.40;99.90
21666;DHT22;10994;45.486;9.190;2022-12-18T03:06:01;7.50;99.90
21666;DHT22;10994;45.486;9.190;2022-12-18T03:08:31;7.60;99.90
21666;DHT22;10994;45.486;9.190;2022-12-18T03:11:08;7.60;99.90
21666;DHT22;10994;45.486;9.190;2022-12-18T03:13:50;7.60;99.90
21666;DHT22;10994;45.486;9.190;2022-12-18T03:16:25;7.60;99.90
21666;DHT22;10994;45.486;9.190;2022-12-18T03:19:08;7.50;99.90
21666;DHT22;10994;45.486;9.190;2022-12-18T03:21:42;7.40;99.90
21666;DHT22;10994;45.486;9.190;2022-12-18T03:24:10;7.40;99.90
21666;DHT22;10994;45.486;9.190;2022-12-18T03:26:40;7.50;99.90
21666;DHT22;10994;45.486;9.190;2022-12-18T03:29:19;7.50;99.90
21666;DHT22;10994;45.486;9.190;2022-12-18T03:31:51;7.60;99.90
21666;DHT22;10994;45.486;9.190;2022-12-18T03:34:25;7.60;99.90
21666;DHT22;10994;45.486;9.190;2022-12-18T03:36:53;7.70;99.90
21666;DHT22;10994;45.486;9.190;2022-12-18T03:39:19;7.70;99.90
21666;DHT22;10994;45.486;9.190;2022-12-18T03:42:03;7.80;99.90
21666;DHT22;10994;45.486;9.190;2022-12-18T03:47:29;7.70;99.90
21666;DHT22;10994;45.486;9.190;2022-12-18T03:50:12;7.80;99.90
21666;DHT22;10994;45.486;9.190;2022-12-18T03:55:43;7.80;99.90
21666;DHT22;10994;45.486;9.190;2022-12-18T03:58:13;7.90;99.90
21666;DHT22;10994;45.486;9.190;2022-12-18T04:00:53;8.00;99.90
21666;DHT22;10994;45.486;9.190;2022-12-18T04:03:20;8.10;99.90
21666;DHT22;10994;45.486;9.190;2022-12-18T04:05:49;8.10;99.90
21666;DHT22;10994;45.486;9.190;2022-12-18T04:08:18;7.90;99.90
21666;DHT22;10994;45.486;9.190;2022-12-18T04:10:52;7.70;99.90
21666;DHT22;10994;45.486;9.190;2022-12-18T04:13:23;7.60;99.90
21666;DHT22;10994;45.486;9.190;2022-12-18T04:15:49;7.80;99.90
21666;DHT22;10994;45.486;9.190;2022-12-18T04:18:16;7.90;99.90
21666;DHT22;10994;45.486;9.190;2022-12-18T04:20:42;7.90;99.90
21666;DHT22;10994;45.486;9.190;2022-12-18T04:23:10;7.90;99.90
21666;DHT22;10994;45.486;9.190;2022-12-18T04:25:36;7.90;99.90
21666;DHT22;10994;45.486;9.190;2022-12-18T04:28:09;7.80;99.90
21666;DHT22;10994;45.486;9.190;2022-12-18T04:30:37;7.90;99.90
21666;DHT22;10994;45.486;9.190;2022-12-18T04:33:07;8.00;99.90
21666;DHT22;10994;45.486;9.190;2022-12-18T04:35:33;7.90;99.90
21666;DHT22;10994;45.486;9.190;2022-12-18T04:37:59;7.80;99.90
21666;DHT22;10994;45.486;9.190;2022-12-18T04:40:26;7.70;99.90
21666;DHT22;10994;45.486;9.190;2022-12-18T04:42:52;7.70;99.90
21666;DHT22;10994;45.486;9.190;2022-12-18T04:45:17;7.70;99.90
21666;DHT22;10994;45.486;9.190;2022-12-18T04:47:44;7.80;99.90
21666;DHT22;10994;45.486;9.190;2022-12-18T04:50:10;7.90;99.90
21666;DHT22;10994;45.486;9.190;2022-12-18T04:52:35;7.90;99.90
21666;DHT22;10994;45.486;9.190;2022-12-18T04:55:01;7.90;99.90
21666;DHT22;10994;45.486;9.190;2022-12-18T04:57:27;7.90;99.90
21666;DHT22;10994;45.486;9.190;2022-12-18T04:59:52;8.00;99.90
21666;DHT22;10994;45.486;9.190;2022-12-18T05:02:19;7.90;99.90
21666;DHT22;10994;45.486;9.190;2022-12-18T05:04:45;7.80;99.90
21666;DHT22;10994;45.486;9.190;2022-12-18T05:07:10;7.80;99.90
21666;DHT22;10994;45.486;9.190;2022-12-18T05:09:36;7.80;99.90
21666;DHT22;10994;45.486;9.190;2022-12-18T05:12:01;7.80;99.90
21666;DHT22;10994;45.486;9.190;2022-12-18T05:14:27;7.90;99.90
21666;DHT22;10994;45.486;9.190;2022-12-18T05:16:54;7.90;99.90
21666;DHT22;10994;45.486;9.190;2022-12-18T05:19:20;7.70;99.90
21666;DHT22;10994;45.486;9.190;2022-12-18T05:21:46;7.70;99.90
21666;DHT22;10994;45.486;9.190;2022-12-18T05:24:11;7.70;99.90
21666;DHT22;10994;45.486;9.190;2022-12-18T05:26:37;7.80;99.90
21666;DHT22;10994;45.486;9.190;2022-12-18T05:29:03;7.90;99.90
21666;DHT22;10994;45.486;9.190;2022-12-18T05:31:29;7.90;99.90
21666;DHT22;10994;45.486;9.190;2022-12-18T05:33:54;7.90;99.90
21666;DHT22;10994;45.486;9.190;2022-12-18T05:36:20;7.90;99.90
21666;DHT22;10994;45.486;9.190;2022-12-18T05:38:49;7.90;99.90
21666;DHT22;10994;45.486;9.190;2022-12-18T05:41:14;7.90;99.90
21666;DHT22;10994;45.486;9.190;2022-12-18T05:43:40;8.00;99.90
21666;DHT22;10994;45.486;9.190;2022-12-18T05:46:08;8.00;99.90
21666;DHT22;10994;45.486;9.190;2022-12-18T05:48:34;8.00;99.90
21666;DHT22;10994;45.486;9.190;2022-12-18T05:51:08;7.80;99.90
21666;DHT22;10994;45.486;9.190;2022-12-18T05:53:36;7.70;99.90
21666;DHT22;10994;45.486;9.190;2022-12-18T05:56:07;7.70;99.90
21666;DHT22;10994;45.486;9.190;2022-12-18T05:58:33;7.70;99.90
21666;DHT22;10994;45.486;9.190;2022-12-18T06:01:09;7.90;99.90
21666;DHT22;10994;45.486;9.190;2022-12-18T06:03:35;7.80;99.90
21666;DHT22;10994;45.486;9.190;2022-12-18T06:06:01;7.80;99.90
21666;DHT22;10994;45.486;9.190;2022-12-18T06:08:27;7.80;99.90
21666;DHT22;10994;45.486;9.190;2022-12-18T06:10:53;7.80;99.90
21666;DHT22;10994;45.486;9.190;2022-12-18T06:13:19;7.80;99.90
21666;DHT22;10994;45.486;9.190;2022-12-18T06:15:45;7.80;99.90
21666;DHT22;10994;45.486;9.190;2022-12-18T06:18:10;7.80;99.90
21666;DHT22;10994;45.486;9.190;2022-12-18T06:20:36;7.80;99.90
21666;DHT22;10994;45.486;9.190;2022-12-18T06:23:05;7.80;99.90
21666;DHT22;10994;45.486;9.190;2022-12-18T06:25:31;7.90;99.90
21666;DHT22;10994;45.486;9.190;2022-12-18T06:27:57;7.90;99.90
21666;DHT22;10994;45.486;9.190;2022-12-18T06:30:22;8.10;99.90
21666;DHT22;10994;45.486;9.190;2022-12-18T06:32:49;8.10;99.90
21666;DHT22;10994;45.486;9.190;2022-12-18T06:35:15;8.00;99.90
21666;DHT22;10994;45.486;9.190;2022-12-18T06:37:40;7.90;99.90
21666;DHT22;10994;45.486;9.190;2022-12-18T06:40:07;8.00;99.90
21666;DHT22;10994;45.486;9.190;2022-12-18T06:42:32;8.00;99.90
21666;DHT22;10994;45.486;9.190;2022-12-18T06:44:58;8.10;99.90
21666;DHT22;10994;45.486;9.190;2022-12-18T06:47:24;8.10;99.90
21666;DHT22;10994;45.486;9.190;2022-12-18T06:49:49;8.00;99.90
21666;DHT22;10994;45.486;9.190;2022-12-18T06:52:15;7.90;99.90
21666;DHT22;10994;45.486;9.190;2022-12-18T06:54:41;7.70;99.90
21666;DHT22;10994;45.486;9.190;2022-12-18T06:57:06;7.70;99.90
21666;DHT22;10994;45.486;9.190;2022-12-18T06:59:32;7.80;99.90
21666;DHT22;10994;45.486;9.190;2022-12-18T07:01:58;7.80;99.90
21666;DHT22;10994;45.486;9.190;2022-12-18T07:04:31;7.80;99.90
21666;DHT22;10994;45.486;9.190;2022-12-18T07:06:57;7.70;99.90
21666;DHT22;10994;45.486;9.190;2022-12-18T07:09:23;7.70;99.90
21666;DHT22;10994;45.486;9.190;2022-12-18T07:11:49;7.70;99.90
21666;DHT22;10994;45.486;9.190;2022-12-18T07:14:15;7.60;99.90
21666;DHT22;10994;45.486;9.190;2022-12-18T07:16:40;7.70;99.90
21666;DHT22;10994;45.486;9.190;2022-12-18T07:19:06;7.70;99.90
21666;DHT22;10994;45.486;9.190;2022-12-18T07:21:32;7.80;99.90
21666;DHT22;10994;45.486;9.190;2022-12-18T07:23:57;7.80;99.90
21666;DHT22;10994;45.486;9.190;2022-12-18T07:26:23;7.80;99.90
21666;DHT22;10994;45.486;9.190;2022-12-18T07:28:49;7.80;99.90
21666;DHT22;10994;45.486;9.190;2022-12-18T07:31:18;7.90;99.90
21666;DHT22;10994;45.486;9.190;2022-12-18T07:33:46;7.90;99.90
21666;DHT22;10994;45.486;9.190;2022-12-18T07:36:12;8.00;99.90
21666;DHT22;10994;45.486;9.190;2022-12-18T07:38:38;7.90;99.90
21666;DHT22;10994;45.486;9.190;2022-12-18T07:41:07;7.80;99.90
21666;DHT22;10994;45.486;9.190;2022-12-18T07:43:34;7.80;99.90
21666;DHT22;10994;45.486;9.190;2022-12-18T07:45:59;7.80;99.90
21666;DHT22;10994;45.486;9.190;2022-12-18T07:48:25;7.80;99.90
21666;DHT22;10994;45.486;9.190;2022-12-18T07:50:52;7.80;99.90
21666;DHT22;10994;45.486;9.190;2022-12-18T07:53:17;7.60;99.90
21666;DHT22;10994;45.486;9.190;2022-12-18T07:55:43;7.80;99.90
21666;DHT22;10994;45.486;9.190;2022-12-18T07:58:09;7.80;99.90
21666;DHT22;10994;45.486;9.190;2022-12-18T08:00:35;7.80;99.90
21666;DHT22;10994;45.486;9.190;2022-12-18T08:03:01;7.80;99.90
21666;DHT22;10994;45.486;9.190;2022-12-18T08:05:29;7.80;99.90
21666;DHT22;10994;45.486;9.190;2022-12-18T08:07:55;7.80;99.90
21666;DHT22;10994;45.486;9.190;2022-12-18T08:10:21;7.80;99.90
21666;DHT22;10994;45.486;9.190;2022-12-18T08:12:51;7.80;99.90
21666;DHT22;10994;45.486;9.190;2022-12-18T08:15:17;7.90;99.90
21666;DHT22;10994;45.486;9.190;2022-12-18T08:17:42;7.90;99.90
21666;DHT22;10994;45.486;9.190;2022-12-18T08:20:08;7.70;99.90
21666;DHT22;10994;45.486;9.190;2022-12-18T08:22:35;7.80;99.90
21666;DHT22;10994;45.486;9.190;2022-12-18T08:25:04;7.80;99.90
21666;DHT22;10994;45.486;9.190;2022-12-18T08:27:30;7.70;99.90
21666;DHT22;10994;45.486;9.190;2022-12-18T08:29:56;7.80;99.90
21666;DHT22;10994;45.486;9.190;2022-12-18T08:32:22;8.00;99.90
21666;DHT22;10994;45.486;9.190;2022-12-18T08:34:48;8.10;99.90
21666;DHT22;10994;45.486;9.190;2022-12-18T08:37:14;8.10;99.90
21666;DHT22;10994;45.486;9.190;2022-12-18T08:39:39;8.20;99.90
21666;DHT22;10994;45.486;9.190;2022-12-18T08:42:05;8.20;99.90
21666;DHT22;10994;45.486;9.190;2022-12-18T08:44:49;8.30;99.90
21666;DHT22;10994;45.486;9.190;2022-12-18T08:47:15;8.40;99.90
21666;DHT22;10994;45.486;9.190;2022-12-18T08:49:41;8.50;99.90
21666;DHT22;10994;45.486;9.190;2022-12-18T08:52:06;8.60;99.90
21666;DHT22;10994;45.486;9.190;2022-12-18T08:54:32;8.40;99.90
21666;DHT22;10994;45.486;9.190;2022-12-18T08:56:58;8.30;99.90
21666;DHT22;10994;45.486;9.190;2022-12-18T08:59:23;8.30;99.90
21666;DHT22;10994;45.486;9.190;2022-12-18T09:01:49;8.30;99.90
21666;DHT22;10994;45.486;9.190;2022-12-18T09:04:15;8.40;99.90
21666;DHT22;10994;45.486;9.190;2022-12-18T09:06:41;8.50;99.90
21666;DHT22;10994;45.486;9.190;2022-12-18T09:09:07;8.50;99.90
21666;DHT22;10994;45.486;9.190;2022-12-18T09:11:33;8.60;99.90
21666;DHT22;10994;45.486;9.190;2022-12-18T09:14:00;8.80;99.90
21666;DHT22;10994;45.486;9.190;2022-12-18T09:16:28;8.90;99.90
21666;DHT22;10994;45.486;9.190;2022-12-18T09:18:57;9.00;99.90
21666;DHT22;10994;45.486;9.190;2022-12-18T09:21:32;9.10;99.90
21666;DHT22;10994;45.486;9.190;2022-12-18T09:23:58;9.30;99.90
21666;DHT22;10994;45.486;9.190;2022-12-18T09:26:24;9.40;99.90
21666;DHT22;10994;45.486;9.190;2022-12-18T09:28:51;9.40;99.90
21666;DHT22;10994;45.486;9.190;2022-12-18T09:31:18;9.20;99.90
21666;DHT22;10994;45.486;9.190;2022-12-18T09:33:45;9.00;99.90
21666;DHT22;10994;45.486;9.190;2022-12-18T09:36:13;8.80;99.90
21666;DHT22;10994;45.486;9.190;2022-12-18T09:38:39;8.80;99.90
21666;DHT22;10994;45.486;9.190;2022-12-18T09:44:05;8.70;99.90
21666;DHT22;10994;45.486;9.190;2022-12-18T09:46:39;8.60;99.90
21666;DHT22;10994;45.486;9.190;2022-12-18T09:49:09;8.70;99.90
21666;DHT22;10994;45.486;9.190;2022-12-18T09:54:14;8.80;99.90
21666;DHT22;10994;45.486;9.190;2022-12-18T09:56:42;8.80;99.90
21666;DHT22;10994;45.486;9.190;2022-12-18T09:59:23;8.90;99.90
21666;DHT22;10994;45.486;9.190;2022-12-18T10:01:49;8.90;99.90
21666;DHT22;10994;45.486;9.190;2022-12-18T10:04:15;9.00;99.90
21666;DHT22;10994;45.486;9.190;2022-12-18T10:06:54;9.10;99.90
21666;DHT22;10994;45.486;9.190;2022-12-18T10:09:30;9.30;99.90
21666;DHT22;10994;45.486;9.190;2022-12-18T10:12:02;9.30;99.90
21666;DHT22;10994;45.486;9.190;2022-12-18T10:20:00;9.40;99.90
21666;DHT22;10994;45.486;9.190;2022-12-18T10:22:57;9.50;99.90
21666;DHT22;10994;45.486;9.190;2022-12-18T10:28:14;9.40;99.90
21666;DHT22;10994;45.486;9.190;2022-12-18T10:30:41;9.40;99.90
21666;DHT22;10994;45.486;9.190;2022-12-18T10:33:16;9.50;99.90
21666;DHT22;10994;45.486;9.190;2022-12-18T10:35:42;9.60;99.90
21666;DHT22;10994;45.486;9.190;2022-12-18T10:40:55;9.50;99.90
21666;DHT22;10994;45.486;9.190;2022-12-18T10:48:28;9.10;99.90
21666;DHT22;10994;45.486;9.190;2022-12-18T10:50:55;9.10;99.90
21666;DHT22;10994;45.486;9.190;2022-12-18T10:53:24;9.00;99.90
21666;DHT22;10994;45.486;9.190;2022-12-18T10:55:52;9.10;99.90
21666;DHT22;10994;45.486;9.190;2022-12-18T10:58:25;8.90;99.90
21666;DHT22;10994;45.486;9.190;2022-12-18T11:01:16;8.90;99.90
21666;DHT22;10994;45.486;9.190;2022-12-18T11:03:47;9.20;99.90
21666;DHT22;10994;45.486;9.190;2022-12-18T11:06:25;9.30;99.90
21666;DHT22;10994;45.486;9.190;2022-12-18T11:08:59;9.50;99.90
21666;DHT22;10994;45.486;9.190;2022-12-18T11:11:26;9.50;99.90
21666;DHT22;10994;45.486;9.190;2022-12-18T11:14:05;9.40;99.90
21666;DHT22;10994;45.486;9.190;2022-12-18T11:16:44;9.20;99.90
21666;DHT22;10994;45.486;9.190;2022-12-18T11:19:26;9.50;99.90
21666;DHT22;10994;45.486;9.190;2022-12-18T11:21:53;9.60;99.90
21666;DHT22;10994;45.486;9.190;2022-12-18T11:24:32;9.50;99.90
21666;DHT22;10994;45.486;9.190;2022-12-18T11:27:02;9.70;99.90
21666;DHT22;10994;45.486;9.190;2022-12-18T11:29:33;9.60;99.90
21666;DHT22;10994;45.486;9.190;2022-12-18T11:32:35;9.30;99.90
21666;DHT22;10994;45.486;9.190;2022-12-18T11:35:17;9.30;99.90
21666;DHT22;10994;45.486;9.190;2022-12-18T11:37:58;9.20;99.90
21666;DHT22;10994;45.486;9.190;2022-12-18T11:40:47;9.00;99.90
21666;DHT22;10994;45.486;9.190;2022-12-18T11:43:21;9.00;99.90
21666;DHT22;10994;45.486;9.190;2022-12-18T11:45:59;9.00;99.90
21666;DHT22;10994;45.486;9.190;2022-12-18T11:51:03;9.20;99.90
21666;DHT22;10994;45.486;9.190;2022-12-18T11:53:30;8.90;99.90
21666;DHT22;10994;45.486;9.190;2022-12-18T11:58:50;8.90;99.90
21666;DHT22;10994;45.486;9.190;2022-12-18T12:01:46;9.10;99.90
21666;DHT22;10994;45.486;9.190;2022-12-18T12:21:18;9.20;99.90
21666;DHT22;10994;45.486;9.190;2022-12-18T12:26:44;9.50;99.90
21666;DHT22;10994;45.486;9.190;2022-12-18T12:39:53;8.80;99.90
21666;DHT22;10994;45.486;9.190;2022-12-18T12:42:37;8.70;99.90
21666;DHT22;10994;45.486;9.190;2022-12-18T12:45:45;9.00;99.90
21666;DHT22;10994;45.486;9.190;2022-12-18T12:51:07;9.20;99.90
21666;DHT22;10994;45.486;9.190;2022-12-18T12:53:36;9.10;99.90
21666;DHT22;10994;45.486;9.190;2022-12-18T12:56:04;8.90;99.90
21666;DHT22;10994;45.486;9.190;2022-12-18T13:06:45;9.20;99.90
21666;DHT22;10994;45.486;9.190;2022-12-18T13:09:12;9.10;99.90
21666;DHT22;10994;45.486;9.190;2022-12-18T13:11:45;9.20;99.90
21666;DHT22;10994;45.486;9.190;2022-12-18T13:19:56;9.30;99.90
21666;DHT22;10994;45.486;9.190;2022-12-18T13:22:35;9.40;99.90
21666;DHT22;10994;45.486;9.190;2022-12-18T13:25:03;9.20;99.90
21666;DHT22;10994;45.486;9.190;2022-12-18T13:28:10;9.20;99.90
21666;DHT22;10994;45.486;9.190;2022-12-18T13:30:46;9.50;99.90
21666;DHT22;10994;45.486;9.190;2022-12-18T13:38:35;9.60;99.90
21666;DHT22;10994;45.486;9.190;2022-12-18T13:43:43;9.60;99.90
21666;DHT22;10994;45.486;9.190;2022-12-18T13:46:21;9.50;99.90
21666;DHT22;10994;45.486;9.190;2022-12-18T13:51:21;9.70;99.90
21666;DHT22;10994;45.486;9.190;2022-12-18T13:53:48;9.50;99.90
21666;DHT22;10994;45.486;9.190;2022-12-18T13:56:21;9.50;99.90
21666;DHT22;10994;45.486;9.190;2022-12-18T14:01:48;9.60;99.90
21666;DHT22;10994;45.486;9.190;2022-12-18T14:06:56;9.70;99.90
21666;DHT22;10994;45.486;9.190;2022-12-18T14:09:28;9.60;99.90
21666;DHT22;10994;45.486;9.190;2022-12-18T14:11:55;9.30;99.90
21666;DHT22;10994;45.486;9.190;2022-12-18T14:14:44;9.30;99.90
21666;DHT22;10994;45.486;9.190;2022-12-18T14:17:11;9.30;99.90
21666;DHT22;10994;45.486;9.190;2022-12-18T14:19:48;9.40;99.90
21666;DHT22;10994;45.486;9.190;2022-12-18T14:22:21;9.50;99.90
21666;DHT22;10994;45.486;9.190;2022-12-18T14:27:49;9.20;99.90
21666;DHT22;10994;45.486;9.190;2022-12-18T14:33:05;9.10;99.90
21666;DHT22;10994;45.486;9.190;2022-12-18T14:35:36;9.10;99.90
21666;DHT22;10994;45.486;9.190;2022-12-18T14:40:47;9.10;99.90
21666;DHT22;10994;45.486;9.190;2022-12-18T14:43:20;9.20;99.90
21666;DHT22;10994;45.486;9.190;2022-12-18T14:45:47;9.10;99.90
21666;DHT22;10994;45.486;9.190;2022-12-18T14:50:38;9.10;99.90
21666;DHT22;10994;45.486;9.190;2022-12-18T14:53:25;9.10;99.90
21666;DHT22;10994;45.486;9.190;2022-12-18T14:55:53;9.20;99.90
21666;DHT22;10994;45.486;9.190;2022-12-18T14:58:19;9.20;99.90
21666;DHT22;10994;45.486;9.190;2022-12-18T15:00:45;9.20;99.90
21666;DHT22;10994;45.486;9.190;2022-12-18T15:03:15;9.10;99.90
21666;DHT22;10994;45.486;9.190;2022-12-18T15:05:43;9.10;99.90
21666;DHT22;10994;45.486;9.190;2022-12-18T15:08:38;9.10;99.90
21666;DHT22;10994;45.486;9.190;2022-12-18T15:11:27;9.00;99.90
21666;DHT22;10994;45.486;9.190;2022-12-18T15:13:53;9.00;99.90
21666;DHT22;10994;45.486;9.190;2022-12-18T15:16:19;9.20;99.90
21666;DHT22;10994;45.486;9.190;2022-12-18T15:18:45;9.20;99.90
21666;DHT22;10994;45.486;9.190;2022-12-18T15:21:22;9.20;99.90
21666;DHT22;10994;45.486;9.190;2022-12-18T15:23:50;9.10;99.90
21666;DHT22;10994;45.486;9.190;2022-12-18T15:26:18;9.00;99.90
21666;DHT22;10994;45.486;9.190;2022-12-18T15:28:49;9.00;99.90
21666;DHT22;10994;45.486;9.190;2022-12-18T15:36:20;8.60;99.90
21666;DHT22;10994;45.486;9.190;2022-12-18T15:38:50;8.60;99.90
21666;DHT22;10994;45.486;9.190;2022-12-18T15:41:19;8.50;99.90
21666;DHT22;10994;45.486;9.190;2022-12-18T15:43:47;8.50;99.90
21666;DHT22;10994;45.486;9.190;2022-12-18T15:46:15;8.50;99.90
21666;DHT22;10994;45.486;9.190;2022-12-18T15:48:43;8.40;99.90
21666;DHT22;10994;45.486;9.190;2022-12-18T15:53:41;8.40;99.90
21666;DHT22;10994;45.486;9.190;2022-12-18T15:56:10;8.40;99.90
21666;DHT22;10994;45.486;9.190;2022-12-18T15:58:55;8.30;99.90
21666;DHT22;10994;45.486;9.190;2022-12-18T16:01:27;8.30;99.90
21666;DHT22;10994;45.486;9.190;2022-12-18T16:03:54;8.30;99.90
21666;DHT22;10994;45.486;9.190;2022-12-18T16:06:21;8.30;99.90
21666;DHT22;10994;45.486;9.190;2022-12-18T16:08:47;8.30;99.90
21666;DHT22;10994;45.486;9.190;2022-12-18T16:11:24;8.30;99.90
21666;DHT22;10994;45.486;9.190;2022-12-18T16:16:49;8.50;99.90
21666;DHT22;10994;45.486;9.190;2022-12-18T16:19:15;8.40;99.90
21666;DHT22;10994;45.486;9.190;2022-12-18T16:21:42;8.30;99.90
21666;DHT22;10994;45.486;9.190;2022-12-18T16:24:19;8.30;99.90
21666;DHT22;10994;45.486;9.190;2022-12-18T16:26:47;8.30;99.90
21666;DHT22;10994;45.486;9.190;2022-12-18T16:29:14;8.40;99.90
21666;DHT22;10994;45.486;9.190;2022-12-18T16:31:40;8.50;99.90
21666;DHT22;10994;45.486;9.190;2022-12-18T16:34:23;8.30;99.90
21666;DHT22;10994;45.486;9.190;2022-12-18T16:36:56;8.20;99.90
21666;DHT22;10994;45.486;9.190;2022-12-18T16:39:22;8.30;99.90
21666;DHT22;10994;45.486;9.190;2022-12-18T16:41:48;8.40;99.90
21666;DHT22;10994;45.486;9.190;2022-12-18T16:44:14;8.40;99.90
21666;DHT22;10994;45.486;9.190;2022-12-18T16:46:40;8.50;99.90
21666;DHT22;10994;45.486;9.190;2022-12-18T16:49:08;8.60;99.90
21666;DHT22;10994;45.486;9.190;2022-12-18T16:51:35;8.60;99.90
21666;DHT22;10994;45.486;9.190;2022-12-18T16:54:01;8.50;99.90
21666;DHT22;10994;45.486;9.190;2022-12-18T16:56:27;8.30;99.90
21666;DHT22;10994;45.486;9.190;2022-12-18T16:58:54;8.30;99.90
21666;DHT22;10994;45.486;9.190;2022-12-18T17:01:21;8.30;99.90
21666;DHT22;10994;45.486;9.190;2022-12-18T17:03:51;8.50;99.90
21666;DHT22;10994;45.486;9.190;2022-12-18T17:06:18;8.50;99.90
21666;DHT22;10994;45.486;9.190;2022-12-18T17:08:44;8.40;99.90
21666;DHT22;10994;45.486;9.190;2022-12-18T17:11:10;8.70;99.90
21666;DHT22;10994;45.486;9.190;2022-12-18T17:13:35;8.80;99.90
21666;DHT22;10994;45.486;9.190;2022-12-18T17:16:02;8.50;99.90
21666;DHT22;10994;45.486;9.190;2022-12-18T17:18:29;8.40;99.90
21666;DHT22;10994;45.486;9.190;2022-12-18T17:21:02;8.50;99.90
21666;DHT22;10994;45.486;9.190;2022-12-18T17:23:28;8.70;99.90
21666;DHT22;10994;45.486;9.190;2022-12-18T17:25:56;8.70;99.90
21666;DHT22;10994;45.486;9.190;2022-12-18T17:28:23;8.80;99.90
21666;DHT22;10994;45.486;9.190;2022-12-18T17:30:54;9.00;99.90
21666;DHT22;10994;45.486;9.190;2022-12-18T17:33:20;9.00;99.90
21666;DHT22;10994;45.486;9.190;2022-12-18T17:35:47;9.00;99.90
21666;DHT22;10994;45.486;9.190;2022-12-18T17:38:12;8.90;99.90
21666;DHT22;10994;45.486;9.190;2022-12-18T17:40:39;8.70;99.90
21666;DHT22;10994;45.486;9.190;2022-12-18T17:43:08;8.60;99.90
21666;DHT22;10994;45.486;9.190;2022-12-18T17:45:38;8.60;99.90
21666;DHT22;10994;45.486;9.190;2022-12-18T17:48:05;8.60;99.90
21666;DHT22;10994;45.486;9.190;2022-12-18T17:50:34;8.90;99.90
21666;DHT22;10994;45.486;9.190;2022-12-18T17:53:01;8.90;99.90
21666;DHT22;10994;45.486;9.190;2022-12-18T17:55:27;9.00;99.90
21666;DHT22;10994;45.486;9.190;2022-12-18T17:57:53;9.10;99.90
21666;DHT22;10994;45.486;9.190;2022-12-18T18:00:19;9.10;99.90
21666;DHT22;10994;45.486;9.190;2022-12-18T18:02:45;9.00;99.90
21666;DHT22;10994;45.486;9.190;2022-12-18T18:05:11;9.00;99.90
21666;DHT22;10994;45.486;9.190;2022-12-18T18:07:38;8.80;99.90
21666;DHT22;10994;45.486;9.190;2022-12-18T18:10:07;8.70;99.90
21666;DHT22;10994;45.486;9.190;2022-12-18T18:12:35;8.60;99.90
21666;DHT22;10994;45.486;9.190;2022-12-18T18:15:25;8.50;99.90
21666;DHT22;10994;45.486;9.190;2022-12-18T18:17:50;8.30;99.90
21666;DHT22;10994;45.486;9.190;2022-12-18T18:20:17;8.20;99.90